sensor_id;sensor_type;location;lat;lon;timestamp;temperature;humidity
26803;DHT22;14378;51.796;5.808;2023-07-13T00:00:47;16.60;99.90
26803;DHT22;14378;51.796;5.808;2023-07-13T00:02:48;16.60;99.90
26803;DHT22;14378;51.796;5.808;2023-07-13T00:04:49;16.60;99.90
26803;DHT22;14378;51.796;5.808;2023-07-13T00:06:51;16.60;99.90
26803;DHT22;14378;51.796;5.808;2023-07-13T00:08:52;16.60;99.90
26803;DHT22;14378;51.796;5.808;2023-07-13T00:10:53;16.60;99.90
26803;DHT22;14378;51.796;5.808;2023-07-13T00:12:57;16.50;99.90
26803;DHT22;14378;51.796;5.808;2023-07-13T00:15:10;16.60;99.90
26803;DHT22;14378;51.796;5.808;2023-07-13T00:17:11;16.50;99.90
26803;DHT22;14378;51.796;5.808;2023-07-13T00:19:13;16.50;99.90
26803;DHT22;14378;51.796;5.808;2023-07-13T00:21:14;16.50;99.90
26803;DHT22;14378;51.796;5.808;2023-07-13T00:23:15;16.50;99.90
26803;DHT22;14378;51.796;5.808;2023-07-13T00:25:18;16.40;99.90
26803;DHT22;14378;51.796;5.808;2023-07-13T00:27:22;16.40;99.90
26803;DHT22;14378;51.796;5.808;2023-07-13T00:29:23;16.40;99.90
26803;DHT22;14378;51.796;5.808;2023-07-13T00:31:25;16.40;99.90
26803;DHT22;14378;51.796;5.808;2023-07-13T00:33:28;16.40;99.90
26803;DHT22;14378;51.796;5.808;2023-07-13T00:35:31;16.30;99.90
26803;DHT22;14378;51.796;5.808;2023-07-13T00:37:33;16.30;99.90
26803;DHT22;14378;51.796;5.808;2023-07-13T00:39:36;16.30;99.90
26803;DHT22;14378;51.796;5.808;2023-07-13T00:41:44;16.30;99.90
26803;DHT22;14378;51.796;5.808;2023-07-13T00:43:49;16.20;99.90
26803;DHT22;14378;51.796;5.808;2023-07-13T00:47:50;16.20;99.90
26803;DHT22;14378;51.796;5.808;2023-07-13T00:49:51;16.20;99.90
26803;DHT22;14378;51.796;5.808;2023-07-13T00:51:56;16.20;99.90
26803;DHT22;14378;51.796;5.808;2023-07-13T00:53:59;16.30;99.90
26803;DHT22;14378;51.796;5.808;2023-07-13T00:56:01;16.30;99.90
26803;DHT22;14378;51.796;5.808;2023-07-13T00:58:03;16.20;99.90
26803;DHT22;14378;51.796;5.808;2023-07-13T01:00:11;16.20;99.90
26803;DHT22;14378;51.796;5.808;2023-07-13T01:02:13;16.20;99.90
26803;DHT22;14378;51.796;5.808;2023-07-13T01:04:14;16.10;99.90
26803;DHT22;14378;51.796;5.808;2023-07-13T01:06:16;16.10;99.90
26803;DHT22;14378;51.796;5.808;2023-07-13T01:08:18;16.10;99.90
26803;DHT22;14378;51.796;5.808;2023-07-13T01:10:22;16.10;99.90
26803;DHT22;14378;51.796;5.808;2023-07-13T01:12:23;16.10;99.90
26803;DHT22;14378;51.796;5.808;2023-07-13T01:14:24;16.00;99.90
26803;DHT22;14378;51.796;5.808;2023-07-13T01:16:27;16.00;99.90
26803;DHT22;14378;51.796;5.808;2023-07-13T01:18:30;16.00;99.90
26803;DHT22;14378;51.796;5.808;2023-07-13T01:20:31;16.00;99.90
26803;DHT22;14378;51.796;5.808;2023-07-13T01:22:36;16.00;99.90
26803;DHT22;14378;51.796;5.808;2023-07-13T01:24:39;16.00;99.90
26803;DHT22;14378;51.796;5.808;2023-07-13T01:26:40;16.00;99.90
26803;DHT22;14378;51.796;5.808;2023-07-13T01:28:41;16.00;99.90
26803;DHT22;14378;51.796;5.808;2023-07-13T01:30:46;16.00;99.90
26803;DHT22;14378;51.796;5.808;2023-07-13T01:32:47;16.00;99.90
26803;DHT22;14378;51.796;5.808;2023-07-13T01:34:48;15.90;99.90
26803;DHT22;14378;51.796;5.808;2023-07-13T01:36:51;15.90;99.90
26803;DHT22;14378;51.796;5.808;2023-07-13T01:38:54;15.90;99.90
26803;DHT22;14378;51.796;5.808;2023-07-13T01:40:58;15.80;99.90
26803;DHT22;14378;51.796;5.808;2023-07-13T01:43:00;15.80;99.90
26803;DHT22;14378;51.796;5.808;2023-07-13T01:45:01;15.80;99.90
26803;DHT22;14378;51.796;5.808;2023-07-13T01:47:05;15.80;99.90
26803;DHT22;14378;51.796;5.808;2023-07-13T01:49:06;15.70;99.90
26803;DHT22;14378;51.796;5.808;2023-07-13T01:51:06;15.70;99.90
26803;DHT22;14378;51.796;5.808;2023-07-13T01:53:08;15.70;99.90
26803;DHT22;14378;51.796;5.808;2023-07-13T01:55:13;15.70;99.90
26803;DHT22;14378;51.796;5.808;2023-07-13T01:57:16;15.70;99.90
26803;DHT22;14378;51.796;5.808;2023-07-13T01:59:17;15.70;99.90
26803;DHT22;14378;51.796;5.808;2023-07-13T02:01:18;15.60;99.90
26803;DHT22;14378;51.796;5.808;2023-07-13T02:03:19;15.60;99.90
26803;DHT22;14378;51.796;5.808;2023-07-13T02:05:20;15.60;99.90
26803;DHT22;14378;51.796;5.808;2023-07-13T02:07:21;15.60;99.90
26803;DHT22;14378;51.796;5.808;2023-07-13T02:09:22;15.60;99.90
26803;DHT22;14378;51.796;5.808;2023-07-13T02:11:23;15.60;99.90
26803;DHT22;14378;51.796;5.808;2023-07-13T02:13:29;15.50;99.90
26803;DHT22;14378;51.796;5.808;2023-07-13T02:15:30;15.50;99.90
26803;DHT22;14378;51.796;5.808;2023-07-13T02:17:31;15.50;99.90
26803;DHT22;14378;51.796;5.808;2023-07-13T02:19:35;15.50;99.90
26803;DHT22;14378;51.796;5.808;2023-07-13T02:21:36;15.50;99.90
26803;DHT22;14378;51.796;5.808;2023-07-13T02:23:37;15.50;99.90
26803;DHT22;14378;51.796;5.808;2023-07-13T02:25:38;15.40;99.90
26803;DHT22;14378;51.796;5.808;2023-07-13T02:27:39;15.40;99.90
26803;DHT22;14378;51.796;5.808;2023-07-13T02:29:40;15.40;99.90
26803;DHT22;14378;51.796;5.808;2023-07-13T02:31:41;15.40;99.90
26803;DHT22;14378;51.796;5.808;2023-07-13T02:33:45;15.30;99.90
26803;DHT22;14378;51.796;5.808;2023-07-13T02:35:46;15.30;99.90
26803;DHT22;14378;51.796;5.808;2023-07-13T02:37:47;15.30;99.90
26803;DHT22;14378;51.796;5.808;2023-07-13T02:39:48;15.30;99.90
26803;DHT22;14378;51.796;5.808;2023-07-13T02:41:49;15.30;99.90
26803;DHT22;14378;51.796;5.808;2023-07-13T02:43:50;15.30;99.90
26803;DHT22;14378;51.796;5.808;2023-07-13T02:45:51;15.30;99.90
26803;DHT22;14378;51.796;5.808;2023-07-13T02:47:53;15.20;99.90
26803;DHT22;14378;51.796;5.808;2023-07-13T02:49:54;15.20;99.90
26803;DHT22;14378;51.796;5.808;2023-07-13T02:51:54;15.20;99.90
26803;DHT22;14378;51.796;5.808;2023-07-13T02:53:55;15.20;99.90
26803;DHT22;14378;51.796;5.808;2023-07-13T02:55:57;15.30;99.90
26803;DHT22;14378;51.796;5.808;2023-07-13T02:57:57;15.30;99.90
26803;DHT22;14378;51.796;5.808;2023-07-13T02:59:59;15.30;99.90
26803;DHT22;14378;51.796;5.808;2023-07-13T03:02:06;15.30;99.90
26803;DHT22;14378;51.796;5.808;2023-07-13T03:04:06;15.30;99.90
26803;DHT22;14378;51.796;5.808;2023-07-13T03:06:10;15.30;99.90
26803;DHT22;14378;51.796;5.808;2023-07-13T03:08:19;15.30;99.90
26803;DHT22;14378;51.796;5.808;2023-07-13T03:10:23;15.30;99.90
26803;DHT22;14378;51.796;5.808;2023-07-13T03:12:25;15.20;99.90
26803;DHT22;14378;51.796;5.808;2023-07-13T03:14:27;15.20;99.90
26803;DHT22;14378;51.796;5.808;2023-07-13T03:16:28;15.20;99.90
26803;DHT22;14378;51.796;5.808;2023-07-13T03:18:31;15.20;99.90
26803;DHT22;14378;51.796;5.808;2023-07-13T03:20:39;15.20;99.90
26803;DHT22;14378;51.796;5.808;2023-07-13T03:22:40;15.20;99.90
26803;DHT22;14378;51.796;5.808;2023-07-13T03:24:46;15.20;99.90
26803;DHT22;14378;51.796;5.808;2023-07-13T03:26:47;15.10;99.90
26803;DHT22;14378;51.796;5.808;2023-07-13T03:28:51;15.20;99.90
26803;DHT22;14378;51.796;5.808;2023-07-13T03:31:22;15.20;99.90
26803;DHT22;14378;51.796;5.808;2023-07-13T03:33:24;15.10;99.90
26803;DHT22;14378;51.796;5.808;2023-07-13T03:35:28;15.10;99.90
26803;DHT22;14378;51.796;5.808;2023-07-13T03:37:29;15.20;99.90
26803;DHT22;14378;51.796;5.808;2023-07-13T03:39:33;15.10;99.90
26803;DHT22;14378;51.796;5.808;2023-07-13T03:41:35;15.20;99.90
26803;DHT22;14378;51.796;5.808;2023-07-13T03:43:36;15.20;99.90
26803;DHT22;14378;51.796;5.808;2023-07-13T03:45:38;15.10;99.90
26803;DHT22;14378;51.796;5.808;2023-07-13T03:47:39;15.20;99.90
26803;DHT22;14378;51.796;5.808;2023-07-13T03:49:39;15.20;99.90
26803;DHT22;14378;51.796;5.808;2023-07-13T03:51:40;15.20;99.90
26803;DHT22;14378;51.796;5.808;2023-07-13T03:53:43;15.20;99.90
26803;DHT22;14378;51.796;5.808;2023-07-13T03:55:46;15.10;99.90
26803;DHT22;14378;51.796;5.808;2023-07-13T03:57:53;15.10;99.90
26803;DHT22;14378;51.796;5.808;2023-07-13T03:59:55;15.20;99.90
26803;DHT22;14378;51.796;5.808;2023-07-13T04:01:55;15.20;99.90
26803;DHT22;14378;51.796;5.808;2023-07-13T04:03:56;15.10;99.90
26803;DHT22;14378;51.796;5.808;2023-07-13T04:05:59;15.10;99.90
26803;DHT22;14378;51.796;5.808;2023-07-13T04:08:01;15.20;99.90
26803;DHT22;14378;51.796;5.808;2023-07-13T04:10:04;15.10;99.90
26803;DHT22;14378;51.796;5.808;2023-07-13T04:12:05;15.20;99.90
26803;DHT22;14378;51.796;5.808;2023-07-13T04:14:06;15.10;99.90
26803;DHT22;14378;51.796;5.808;2023-07-13T04:16:12;15.10;99.90
26803;DHT22;14378;51.796;5.808;2023-07-13T04:18:16;15.10;99.90
26803;DHT22;14378;51.796;5.808;2023-07-13T04:20:17;15.10;99.90
26803;DHT22;14378;51.796;5.808;2023-07-13T04:22:20;15.10;99.90
26803;DHT22;14378;51.796;5.808;2023-07-13T04:24:21;15.20;99.90
26803;DHT22;14378;51.796;5.808;2023-07-13T04:26:22;15.20;99.90
26803;DHT22;14378;51.796;5.808;2023-07-13T04:28:25;15.20;99.90
26803;DHT22;14378;51.796;5.808;2023-07-13T04:30:26;15.10;99.90
26803;DHT22;14378;51.796;5.808;2023-07-13T04:32:27;15.20;99.90
26803;DHT22;14378;51.796;5.808;2023-07-13T04:34:28;15.20;99.90
26803;DHT22;14378;51.796;5.808;2023-07-13T04:36:29;15.20;99.90
26803;DHT22;14378;51.796;5.808;2023-07-13T04:38:31;15.20;99.90
26803;DHT22;14378;51.796;5.808;2023-07-13T04:40:32;15.20;99.90
26803;DHT22;14378;51.796;5.808;2023-07-13T04:42:36;15.20;99.90
26803;DHT22;14378;51.796;5.808;2023-07-13T04:44:37;15.30;99.90
26803;DHT22;14378;51.796;5.808;2023-07-13T04:46:41;15.30;99.90
26803;DHT22;14378;51.796;5.808;2023-07-13T04:48:42;15.30;99.90
26803;DHT22;14378;51.796;5.808;2023-07-13T04:50:47;15.30;99.90
26803;DHT22;14378;51.796;5.808;2023-07-13T04:52:54;15.30;99.90
26803;DHT22;14378;51.796;5.808;2023-07-13T04:54:55;15.30;99.90
26803;DHT22;14378;51.796;5.808;2023-07-13T04:56:56;15.40;99.90
26803;DHT22;14378;51.796;5.808;2023-07-13T04:58:57;15.30;99.90
26803;DHT22;14378;51.796;5.808;2023-07-13T05:01:03;15.40;99.90
26803;DHT22;14378;51.796;5.808;2023-07-13T05:03:04;15.40;99.90
26803;DHT22;14378;51.796;5.808;2023-07-13T05:05:06;15.50;99.90
26803;DHT22;14378;51.796;5.808;2023-07-13T05:07:07;15.50;99.90
26803;DHT22;14378;51.796;5.808;2023-07-13T05:09:08;15.50;99.90
26803;DHT22;14378;51.796;5.808;2023-07-13T05:11:09;15.50;99.90
26803;DHT22;14378;51.796;5.808;2023-07-13T05:13:09;15.60;99.90
26803;DHT22;14378;51.796;5.808;2023-07-13T05:15:10;15.60;99.90
26803;DHT22;14378;51.796;5.808;2023-07-13T05:17:11;15.70;99.90
26803;DHT22;14378;51.796;5.808;2023-07-13T05:19:12;15.70;99.90
26803;DHT22;14378;51.796;5.808;2023-07-13T05:21:13;15.70;99.90
26803;DHT22;14378;51.796;5.808;2023-07-13T05:23:14;15.80;99.90
26803;DHT22;14378;51.796;5.808;2023-07-13T05:25:15;15.80;99.90
26803;DHT22;14378;51.796;5.808;2023-07-13T05:27:16;15.90;99.90
26803;DHT22;14378;51.796;5.808;2023-07-13T05:29:17;15.90;99.90
26803;DHT22;14378;51.796;5.808;2023-07-13T05:31:17;16.00;99.90
26803;DHT22;14378;51.796;5.808;2023-07-13T05:33:18;16.00;99.90
26803;DHT22;14378;51.796;5.808;2023-07-13T05:35:19;16.00;99.90
26803;DHT22;14378;51.796;5.808;2023-07-13T05:37:20;16.00;99.90
26803;DHT22;14378;51.796;5.808;2023-07-13T05:39:21;16.00;99.90
26803;DHT22;14378;51.796;5.808;2023-07-13T05:41:23;16.00;99.90
26803;DHT22;14378;51.796;5.808;2023-07-13T05:43:25;16.10;99.90
26803;DHT22;14378;51.796;5.808;2023-07-13T05:45:28;16.10;99.90
26803;DHT22;14378;51.796;5.808;2023-07-13T05:47:30;16.20;99.90
26803;DHT22;14378;51.796;5.808;2023-07-13T05:49:31;16.20;99.90
26803;DHT22;14378;51.796;5.808;2023-07-13T05:51:32;16.30;99.90
26803;DHT22;14378;51.796;5.808;2023-07-13T05:53:34;16.30;99.90
26803;DHT22;14378;51.796;5.808;2023-07-13T05:55:40;16.40;99.90
26803;DHT22;14378;51.796;5.808;2023-07-13T05:57:41;16.40;99.90
26803;DHT22;14378;51.796;5.808;2023-07-13T05:59:42;16.50;99.90
26803;DHT22;14378;51.796;5.808;2023-07-13T06:01:43;16.60;99.90
26803;DHT22;14378;51.796;5.808;2023-07-13T06:03:44;16.60;99.90
26803;DHT22;14378;51.796;5.808;2023-07-13T06:05:45;16.70;99.90
26803;DHT22;14378;51.796;5.808;2023-07-13T06:07:46;16.70;99.90
26803;DHT22;14378;51.796;5.808;2023-07-13T06:09:53;16.70;99.90
26803;DHT22;14378;51.796;5.808;2023-07-13T06:12:00;16.70;99.90
26803;DHT22;14378;51.796;5.808;2023-07-13T06:14:07;16.80;99.90
26803;DHT22;14378;51.796;5.808;2023-07-13T06:16:12;16.90;99.90
26803;DHT22;14378;51.796;5.808;2023-07-13T06:18:13;16.90;99.90
26803;DHT22;14378;51.796;5.808;2023-07-13T06:20:14;17.00;99.90
26803;DHT22;14378;51.796;5.808;2023-07-13T06:22:14;17.10;99.90
26803;DHT22;14378;51.796;5.808;2023-07-13T06:24:15;17.10;99.90
26803;DHT22;14378;51.796;5.808;2023-07-13T06:26:29;17.20;99.90
26803;DHT22;14378;51.796;5.808;2023-07-13T06:28:30;17.30;99.90
26803;DHT22;14378;51.796;5.808;2023-07-13T06:30:35;17.40;99.90
26803;DHT22;14378;51.796;5.808;2023-07-13T06:32:35;17.50;99.90
26803;DHT22;14378;51.796;5.808;2023-07-13T06:34:39;17.50;99.90
26803;DHT22;14378;51.796;5.808;2023-07-13T06:36:44;17.60;99.90
26803;DHT22;14378;51.796;5.808;2023-07-13T06:38:47;17.60;99.90
26803;DHT22;14378;51.796;5.808;2023-07-13T06:40:49;17.70;99.90
26803;DHT22;14378;51.796;5.808;2023-07-13T06:42:50;17.80;99.90
26803;DHT22;14378;51.796;5.808;2023-07-13T06:44:50;17.80;99.90
26803;DHT22;14378;51.796;5.808;2023-07-13T06:46:54;17.80;99.90
26803;DHT22;14378;51.796;5.808;2023-07-13T06:48:56;17.90;99.90
26803;DHT22;14378;51.796;5.808;2023-07-13T06:51:03;18.00;99.90
26803;DHT22;14378;51.796;5.808;2023-07-13T06:53:04;18.00;99.90
26803;DHT22;14378;51.796;5.808;2023-07-13T06:55:05;18.00;99.90
26803;DHT22;14378;51.796;5.808;2023-07-13T06:57:06;18.10;99.90
26803;DHT22;14378;51.796;5.808;2023-07-13T06:59:07;18.10;99.90
26803;DHT22;14378;51.796;5.808;2023-07-13T07:01:09;18.10;99.90
26803;DHT22;14378;51.796;5.808;2023-07-13T07:03:13;18.20;99.90
26803;DHT22;14378;51.796;5.808;2023-07-13T07:05:17;18.10;99.90
26803;DHT22;14378;51.796;5.808;2023-07-13T07:07:19;18.10;99.90
26803;DHT22;14378;51.796;5.808;2023-07-13T07:09:20;18.10;99.90
26803;DHT22;14378;51.796;5.808;2023-07-13T07:11:25;18.10;99.90
26803;DHT22;14378;51.796;5.808;2023-07-13T07:13:26;18.10;99.90
26803;DHT22;14378;51.796;5.808;2023-07-13T07:15:29;18.20;99.90
26803;DHT22;14378;51.796;5.808;2023-07-13T07:17:30;18.30;99.90
26803;DHT22;14378;51.796;5.808;2023-07-13T07:19:31;18.40;99.90
26803;DHT22;14378;51.796;5.808;2023-07-13T07:21:35;18.40;99.90
26803;DHT22;14378;51.796;5.808;2023-07-13T07:23:36;18.40;99.90
26803;DHT22;14378;51.796;5.808;2023-07-13T07:25:37;18.50;99.90
26803;DHT22;14378;51.796;5.808;2023-07-13T07:27:49;18.60;99.90
26803;DHT22;14378;51.796;5.808;2023-07-13T07:29:50;18.60;99.90
26803;DHT22;14378;51.796;5.808;2023-07-13T07:31:52;18.60;99.90
26803;DHT22;14378;51.796;5.808;2023-07-13T07:33:53;18.70;99.90
26803;DHT22;14378;51.796;5.808;2023-07-13T07:35:54;18.80;99.90
26803;DHT22;14378;51.796;5.808;2023-07-13T07:37:55;18.90;99.90
26803;DHT22;14378;51.796;5.808;2023-07-13T07:40:00;18.90;99.90
26803;DHT22;14378;51.796;5.808;2023-07-13T07:42:01;19.10;99.90
26803;DHT22;14378;51.796;5.808;2023-07-13T07:44:02;19.20;99.90
26803;DHT22;14378;51.796;5.808;2023-07-13T07:46:04;19.20;99.90
26803;DHT22;14378;51.796;5.808;2023-07-13T07:48:14;19.20;99.90
26803;DHT22;14378;51.796;5.808;2023-07-13T07:50:15;19.20;99.90
26803;DHT22;14378;51.796;5.808;2023-07-13T07:52:16;19.20;99.90
26803;DHT22;14378;51.796;5.808;2023-07-13T07:54:18;19.30;99.90
26803;DHT22;14378;51.796;5.808;2023-07-13T07:56:21;19.30;99.90
26803;DHT22;14378;51.796;5.808;2023-07-13T07:58:22;19.30;99.90
26803;DHT22;14378;51.796;5.808;2023-07-13T08:00:27;19.40;99.90
26803;DHT22;14378;51.796;5.808;2023-07-13T08:02:31;19.40;99.90
26803;DHT22;14378;51.796;5.808;2023-07-13T08:04:32;19.60;99.90
26803;DHT22;14378;51.796;5.808;2023-07-13T08:06:33;19.70;99.90
26803;DHT22;14378;51.796;5.808;2023-07-13T08:08:34;19.70;99.90
26803;DHT22;14378;51.796;5.808;2023-07-13T08:10:36;19.80;99.90
26803;DHT22;14378;51.796;5.808;2023-07-13T08:12:39;19.90;99.90
26803;DHT22;14378;51.796;5.808;2023-07-13T08:14:40;20.00;99.90
26803;DHT22;14378;51.796;5.808;2023-07-13T08:16:41;20.00;99.90
26803;DHT22;14378;51.796;5.808;2023-07-13T08:18:42;20.10;99.90
26803;DHT22;14378;51.796;5.808;2023-07-13T08:20:43;20.10;99.90
26803;DHT22;14378;51.796;5.808;2023-07-13T08:22:44;20.10;99.90
26803;DHT22;14378;51.796;5.808;2023-07-13T08:24:45;20.10;99.90
26803;DHT22;14378;51.796;5.808;2023-07-13T08:26:45;20.10;99.90
26803;DHT22;14378;51.796;5.808;2023-07-13T08:28:46;20.10;99.90
26803;DHT22;14378;51.796;5.808;2023-07-13T08:30:48;20.10;99.90
26803;DHT22;14378;51.796;5.808;2023-07-13T08:32:49;20.10;99.90
26803;DHT22;14378;51.796;5.808;2023-07-13T08:34:51;20.10;99.90
26803;DHT22;14378;51.796;5.808;2023-07-13T08:36:52;20.10;99.90
26803;DHT22;14378;51.796;5.808;2023-07-13T08:38:53;20.20;99.90
26803;DHT22;14378;51.796;5.808;2023-07-13T08:40:56;20.40;99.90
26803;DHT22;14378;51.796;5.808;2023-07-13T08:42:58;20.50;99.90
26803;DHT22;14378;51.796;5.808;2023-07-13T08:45:20;20.50;99.90
26803;DHT22;14378;51.796;5.808;2023-07-13T08:47:22;20.50;99.90
26803;DHT22;14378;51.796;5.808;2023-07-13T08:49:25;20.60;99.90
26803;DHT22;14378;51.796;5.808;2023-07-13T08:53:36;20.60;99.90
26803;DHT22;14378;51.796;5.808;2023-07-13T08:55:39;20.60;99.90
26803;DHT22;14378;51.796;5.808;2023-07-13T08:57:41;20.70;99.90
26803;DHT22;14378;51.796;5.808;2023-07-13T08:59:42;20.70;99.90
26803;DHT22;14378;51.796;5.808;2023-07-13T09:04:15;21.10;99.90
26803;DHT22;14378;51.796;5.808;2023-07-13T09:09:12;21.60;99.90
26803;DHT22;14378;51.796;5.808;2023-07-13T09:11:27;21.70;99.90
26803;DHT22;14378;51.796;5.808;2023-07-13T09:15:45;22.10;99.90
26803;DHT22;14378;51.796;5.808;2023-07-13T09:17:50;22.10;99.90
26803;DHT22;14378;51.796;5.808;2023-07-13T09:20:04;22.10;99.90
26803;DHT22;14378;51.796;5.808;2023-07-13T09:22:13;22.10;99.90
26803;DHT22;14378;51.796;5.808;2023-07-13T09:24:36;22.10;99.90
26803;DHT22;14378;51.796;5.808;2023-07-13T09:26:40;22.20;99.90
26803;DHT22;14378;51.796;5.808;2023-07-13T09:28:47;22.20;99.90
26803;DHT22;14378;51.796;5.808;2023-07-13T09:31:14;22.00;99.90
26803;DHT22;14378;51.796;5.808;2023-07-13T09:33:16;22.10;99.90
26803;DHT22;14378;51.796;5.808;2023-07-13T09:35:21;22.00;99.90
26803;DHT22;14378;51.796;5.808;2023-07-13T09:37:30;21.80;99.90
26803;DHT22;14378;51.796;5.808;2023-07-13T09:39:39;21.60;99.90
26803;DHT22;14378;51.796;5.808;2023-07-13T09:42:07;21.50;99.90
26803;DHT22;14378;51.796;5.808;2023-07-13T09:44:16;21.40;99.90
26803;DHT22;14378;51.796;5.808;2023-07-13T09:46:21;21.50;99.90
26803;DHT22;14378;51.796;5.808;2023-07-13T09:48:22;21.40;99.90
26803;DHT22;14378;51.796;5.808;2023-07-13T09:50:25;21.50;99.90
26803;DHT22;14378;51.796;5.808;2023-07-13T09:52:27;21.60;99.90
26803;DHT22;14378;51.796;5.808;2023-07-13T09:54:28;21.60;99.90
26803;DHT22;14378;51.796;5.808;2023-07-13T09:56:29;21.60;99.90
26803;DHT22;14378;51.796;5.808;2023-07-13T09:58:35;21.60;99.90
26803;DHT22;14378;51.796;5.808;2023-07-13T10:00:36;21.60;99.90
26803;DHT22;14378;51.796;5.808;2023-07-13T10:02:37;21.60;99.90
26803;DHT22;14378;51.796;5.808;2023-07-13T10:04:38;21.60;99.90
26803;DHT22;14378;51.796;5.808;2023-07-13T10:06:40;21.60;99.90
26803;DHT22;14378;51.796;5.808;2023-07-13T10:08:45;21.40;99.90
26803;DHT22;14378;51.796;5.808;2023-07-13T10:10:52;21.40;99.90
26803;DHT22;14378;51.796;5.808;2023-07-13T10:13:02;21.30;99.90
26803;DHT22;14378;51.796;5.808;2023-07-13T10:15:16;21.30;99.90
26803;DHT22;14378;51.796;5.808;2023-07-13T10:17:20;21.40;99.90
26803;DHT22;14378;51.796;5.808;2023-07-13T10:19:31;21.40;99.90
26803;DHT22;14378;51.796;5.808;2023-07-13T10:21:43;21.50;99.90
26803;DHT22;14378;51.796;5.808;2023-07-13T10:23:53;21.50;99.90
26803;DHT22;14378;51.796;5.808;2023-07-13T10:26:04;21.50;99.90
26803;DHT22;14378;51.796;5.808;2023-07-13T10:30:28;21.50;99.90
26803;DHT22;14378;51.796;5.808;2023-07-13T10:32:33;21.40;99.90
26803;DHT22;14378;51.796;5.808;2023-07-13T10:34:34;21.40;99.90
26803;DHT22;14378;51.796;5.808;2023-07-13T10:36:43;21.30;99.90
26803;DHT22;14378;51.796;5.808;2023-07-13T10:39:05;21.20;99.90
26803;DHT22;14378;51.796;5.808;2023-07-13T10:41:11;21.10;99.90
26803;DHT22;14378;51.796;5.808;2023-07-13T10:43:22;21.00;99.90
26803;DHT22;14378;51.796;5.808;2023-07-13T10:45:27;21.00;99.90
26803;DHT22;14378;51.796;5.808;2023-07-13T10:47:36;21.00;99.90
26803;DHT22;14378;51.796;5.808;2023-07-13T10:49:44;21.00;99.90
26803;DHT22;14378;51.796;5.808;2023-07-13T10:51:48;21.10;99.90
26803;DHT22;14378;51.796;5.808;2023-07-13T10:56:41;21.10;99.90
26803;DHT22;14378;51.796;5.808;2023-07-13T10:58:46;21.10;99.90
26803;DHT22;14378;51.796;5.808;2023-07-13T11:03:14;21.00;99.90
26803;DHT22;14378;51.796;5.808;2023-07-13T11:07:30;20.60;99.90
26803;DHT22;14378;51.796;5.808;2023-07-13T11:09:41;20.30;99.90
26803;DHT22;14378;51.796;5.808;2023-07-13T11:12:08;20.00;99.90
26803;DHT22;14378;51.796;5.808;2023-07-13T11:14:35;19.70;99.90
26803;DHT22;14378;51.796;5.808;2023-07-13T11:16:50;19.60;99.90
26803;DHT22;14378;51.796;5.808;2023-07-13T11:21:17;19.20;99.90
26803;DHT22;14378;51.796;5.808;2023-07-13T11:23:30;19.20;99.90
26803;DHT22;14378;51.796;5.808;2023-07-13T11:25:33;19.20;99.90
26803;DHT22;14378;51.796;5.808;2023-07-13T11:27:43;19.10;99.90
26803;DHT22;14378;51.796;5.808;2023-07-13T11:29:45;19.10;99.90
26803;DHT22;14378;51.796;5.808;2023-07-13T11:32:00;19.10;99.90
26803;DHT22;14378;51.796;5.808;2023-07-13T11:34:02;19.00;99.90
26803;DHT22;14378;51.796;5.808;2023-07-13T11:38:16;19.10;99.90
26803;DHT22;14378;51.796;5.808;2023-07-13T11:40:19;19.10;99.90
26803;DHT22;14378;51.796;5.808;2023-07-13T11:42:24;19.10;99.90
26803;DHT22;14378;51.796;5.808;2023-07-13T11:44:29;19.10;99.90
26803;DHT22;14378;51.796;5.808;2023-07-13T11:46:33;19.20;99.90
26803;DHT22;14378;51.796;5.808;2023-07-13T11:48:35;19.20;99.90
26803;DHT22;14378;51.796;5.808;2023-07-13T11:50:38;19.20;99.90
26803;DHT22;14378;51.796;5.808;2023-07-13T11:52:39;19.30;99.90
26803;DHT22;14378;51.796;5.808;2023-07-13T11:54:51;19.30;99.90
26803;DHT22;14378;51.796;5.808;2023-07-13T11:56:59;19.30;99.90
26803;DHT22;14378;51.796;5.808;2023-07-13T11:59:07;19.30;99.90
26803;DHT22;14378;51.796;5.808;2023-07-13T12:01:21;19.40;99.90
26803;DHT22;14378;51.796;5.808;2023-07-13T12:03:25;19.40;99.90
26803;DHT22;14378;51.796;5.808;2023-07-13T12:05:27;19.60;99.90
26803;DHT22;14378;51.796;5.808;2023-07-13T12:07:33;19.90;99.90
26803;DHT22;14378;51.796;5.808;2023-07-13T12:09:34;20.10;99.90
26803;DHT22;14378;51.796;5.808;2023-07-13T12:11:50;20.40;99.90
26803;DHT22;14378;51.796;5.808;2023-07-13T12:13:51;20.60;99.90
26803;DHT22;14378;51.796;5.808;2023-07-13T12:15:52;20.90;99.90
26803;DHT22;14378;51.796;5.808;2023-07-13T12:17:56;21.30;99.90
26803;DHT22;14378;51.796;5.808;2023-07-13T12:19:57;21.60;99.90
26803;DHT22;14378;51.796;5.808;2023-07-13T12:21:59;21.90;99.90
26803;DHT22;14378;51.796;5.808;2023-07-13T12:24:03;22.10;99.90
26803;DHT22;14378;51.796;5.808;2023-07-13T12:26:06;22.30;99.90
26803;DHT22;14378;51.796;5.808;2023-07-13T12:28:31;22.50;99.90
26803;DHT22;14378;51.796;5.808;2023-07-13T12:30:38;22.90;99.90
26803;DHT22;14378;51.796;5.808;2023-07-13T12:32:39;23.10;99.90
26803;DHT22;14378;51.796;5.808;2023-07-13T12:34:55;23.30;99.90
26803;DHT22;14378;51.796;5.808;2023-07-13T12:37:00;23.40;99.90
26803;DHT22;14378;51.796;5.808;2023-07-13T12:39:13;23.50;99.90
26803;DHT22;14378;51.796;5.808;2023-07-13T12:41:18;23.80;99.90
26803;DHT22;14378;51.796;5.808;2023-07-13T12:43:20;24.20;99.90
26803;DHT22;14378;51.796;5.808;2023-07-13T12:45:26;24.60;99.90
26803;DHT22;14378;51.796;5.808;2023-07-13T12:47:29;24.90;99.90
26803;DHT22;14378;51.796;5.808;2023-07-13T12:49:32;25.20;99.90
26803;DHT22;14378;51.796;5.808;2023-07-13T12:51:37;25.50;99.90
26803;DHT22;14378;51.796;5.808;2023-07-13T12:53:47;25.90;99.90
26803;DHT22;14378;51.796;5.808;2023-07-13T12:55:55;26.10;99.90
26803;DHT22;14378;51.796;5.808;2023-07-13T12:58:03;26.20;99.90
26803;DHT22;14378;51.796;5.808;2023-07-13T13:00:35;26.30;99.90
26803;DHT22;14378;51.796;5.808;2023-07-13T13:02:37;26.40;99.90
26803;DHT22;14378;51.796;5.808;2023-07-13T13:04:40;26.50;99.90
26803;DHT22;14378;51.796;5.808;2023-07-13T13:06:43;26.50;99.90
26803;DHT22;14378;51.796;5.808;2023-07-13T13:08:49;26.40;99.90
26803;DHT22;14378;51.796;5.808;2023-07-13T13:10:50;26.30;99.90
26803;DHT22;14378;51.796;5.808;2023-07-13T13:12:52;26.10;99.90
26803;DHT22;14378;51.796;5.808;2023-07-13T13:14:56;25.80;99.90
26803;DHT22;14378;51.796;5.808;2023-07-13T13:16:57;25.80;99.90
26803;DHT22;14378;51.796;5.808;2023-07-13T13:19:01;26.10;99.90
26803;DHT22;14378;51.796;5.808;2023-07-13T13:21:04;26.30;99.90
26803;DHT22;14378;51.796;5.808;2023-07-13T13:23:07;26.20;99.90
26803;DHT22;14378;51.796;5.808;2023-07-13T13:25:11;26.20;99.90
26803;DHT22;14378;51.796;5.808;2023-07-13T13:27:21;26.20;99.90